Time;durP1;ratioP1;P1;durP2;ratioP2;P2;SDS_P1;SDS_P2;PMS_P1;PMS_P2;Temp;Humidity;BMP_temperature;BMP_pressure;BME280_temperature;BME280_humidity;BME280_pressure;Samples;Min_cycle;Max_cycle;Signal;HPM_P1;HPM_P2
2022/10/16 00:01:23;;;;;;;71.07;24.90;;;;;;;5.91;74.64;100929.79;1624859;87;21246;-71
2022/10/16 00:03:51;;;;;;;56.88;24.55;;;;;;;5.81;75.02;100934.57;1644043;85;20996;-72
2022/10/16 00:06:19;;;;;;;45.73;21.75;;;;;;;5.67;75.38;100933.59;1643066;87;20998;-70
2022/10/16 00:08:46;;;;;;;53.68;23.40;;;;;;;5.56;75.83;100935.43;1616760;87;21646;-71
2022/10/16 00:11:26;;;;;;;42.88;21.17;;;;;;;5.47;76.25;100932.52;1620601;87;21103;-72
2022/10/16 00:13:58;;;;;;;40.10;20.50;;;;;;;5.44;76.70;100931.06;1683835;84;21078;-71
2022/10/16 00:16:24;;;;;;;42.78;22.75;;;;;;;5.37;77.07;100933.34;1692234;84;21102;-71
2022/10/16 00:18:53;;;;;;;36.17;21.27;;;;;;;5.31;77.43;100933.57;1662095;85;21558;-71
2022/10/16 00:21:23;;;;;;;45.55;22.22;;;;;;;5.31;77.72;100930.07;1673813;85;21563;-71
2022/10/16 00:23:54;;;;;;;45.10;21.77;;;;;;;5.30;78.06;100941.75;1671476;85;21121;-70
2022/10/16 00:26:22;;;;;;;48.42;23.47;;;;;;;5.32;78.26;100943.23;1674384;84;21142;-72
2022/10/16 00:28:50;;;;;;;45.30;21.25;;;;;;;5.28;78.34;100938.75;1688177;84;21050;-74
2022/10/16 00:31:19;;;;;;;47.78;24.77;;;;;;;5.27;78.54;100940.30;1703130;84;21093;-72
2022/10/16 00:33:46;;;;;;;41.33;23.75;;;;;;;5.24;78.72;100941.47;1679742;84;21074;-68
2022/10/16 00:36:15;;;;;;;31.95;20.65;;;;;;;5.20;78.92;100943.36;1675877;84;21148;-67
2022/10/16 00:38:41;;;;;;;49.23;26.37;;;;;;;5.14;79.21;100942.75;1674188;85;23335;-66
2022/10/16 00:41:13;;;;;;;49.65;27.10;;;;;;;5.04;79.58;100937.69;1694116;84;21086;-70
2022/10/16 00:43:54;;;;;;;35.43;21.97;;;;;;;5.02;79.98;100942.91;1674632;85;20907;-71
2022/10/16 00:46:37;;;;;;;38.67;23.55;;;;;;;5.00;80.33;100943.08;1674945;85;21052;-69
2022/10/16 00:49:15;;;;;;;39.42;25.32;;;;;;;4.93;80.64;100946.16;1676323;84;21129;-69
2022/10/16 00:51:45;;;;;;;36.48;21.75;;;;;;;4.89;80.98;100950.20;1703701;84;21155;-69
2022/10/16 00:54:30;;;;;;;35.10;22.52;;;;;;;4.91;81.24;100957.50;1701050;84;21630;-71
2022/10/16 00:56:59;;;;;;;42.03;23.05;;;;;;;4.88;81.50;100962.37;1671990;84;20939;-72
2022/10/16 00:59:30;;;;;;;40.80;23.95;;;;;;;4.82;81.70;100958.59;1672390;85;21057;-73
2022/10/16 01:01:57;;;;;;;38.80;24.50;;;;;;;4.80;81.91;100961.93;1674529;84;21561;-73
2022/10/16 01:04:25;;;;;;;44.03;23.12;;;;;;;4.78;82.02;100956.80;1679913;84;21632;-74
2022/10/16 01:07:16;;;;;;;33.02;21.55;;;;;;;4.77;82.13;100964.97;1693657;84;20944;-74
2022/10/16 01:10:03;;;;;;;33.28;21.82;;;;;;;4.74;82.35;100960.02;1649057;84;21097;-71
2022/10/16 01:13:03;;;;;;;30.88;19.00;;;;;;;4.70;82.59;100964.85;1673424;85;21049;-74
2022/10/16 01:15:51;;;;;;;27.07;19.30;;;;;;;4.74;82.93;100954.68;1673371;84;20994;-73
2022/10/16 01:18:35;;;;;;;25.68;15.85;;;;;;;4.86;83.13;100967.88;1676801;84;21093;-73
2022/10/16 01:21:23;;;;;;;25.10;16.35;;;;;;;4.96;83.14;100962.28;1694183;84;20966;-74
2022/10/16 01:24:19;;;;;;;17.45;12.80;;;;;;;5.10;83.10;100966.30;1689927;84;21152;-74
2022/10/16 01:27:13;;;;;;;19.10;13.20;;;;;;;5.23;82.68;100958.98;1695486;84;21536;-75
2022/10/16 01:29:57;;;;;;;18.95;13.13;;;;;;;5.30;82.33;100961.75;1673900;84;21089;-75
2022/10/16 01:32:30;;;;;;;;;;;;;;;5.37;81.91;100969.36;1691255;84;21193;-75
2022/10/16 01:35:14;;;;;;;21.53;13.77;;;;;;;5.42;81.51;100967.77;1688724;84;20146;-75
2022/10/16 01:38:12;;;;;;;20.48;13.40;;;;;;;5.41;81.20;100966.13;1675239;85;22308;-75
2022/10/16 01:40:43;;;;;;;19.25;13.58;;;;;;;5.43;80.98;100971.27;1674951;85;21053;-77
2022/10/16 01:43:24;;;;;;;18.52;13.83;;;;;;;5.42;80.71;100974.97;1673932;84;21110;-77
2022/10/16 01:45:50;;;;;;;18.42;13.13;;;;;;;5.42;80.57;100975.77;1673500;84;21139;-74
2022/10/16 01:48:18;;;;;;;21.27;14.58;;;;;;;5.43;80.44;100974.77;1703144;84;21077;-75
2022/10/16 01:50:57;;;;;;;27.52;16.90;;;;;;;5.47;80.36;100983.22;1703320;84;21111;-75
2022/10/16 01:53:24;;;;;;;26.33;18.98;;;;;;;5.50;80.13;100979.69;1699392;84;20991;-76
2022/10/16 01:55:51;;;;;;;28.83;19.73;;;;;;;5.53;79.86;100985.16;1668137;84;21059;-74
2022/10/16 01:58:18;;;;;;;25.80;18.87;;;;;;;5.54;79.53;100984.98;1662791;86;21526;-75
2022/10/16 02:00:45;;;;;;;25.60;17.65;;;;;;;5.47;79.10;100988.55;1664381;84;21007;-74
2022/10/16 02:03:14;;;;;;;23.52;18.32;;;;;;;5.39;79.05;100981.48;1692016;84;21055;-76
2022/10/16 02:05:48;;;;;;;31.02;19.98;;;;;;;5.33;78.98;100986.72;1670413;84;21121;-75
2022/10/16 02:08:15;;;;;;;31.68;22.05;;;;;;;5.20;78.89;100983.36;1689456;84;21003;-73
2022/10/16 02:10:42;;;;;;;36.88;22.25;;;;;;;5.03;79.10;100986.72;1667937;84;21132;-76
2022/10/16 02:13:16;;;;;;;26.52;18.85;;;;;;;4.93;79.35;100991.48;1662675;84;20999;-76
2022/10/16 02:15:42;;;;;;;39.33;22.02;;;;;;;4.85;79.53;100990.20;1667448;84;21103;-75
2022/10/16 02:18:10;;;;;;;33.13;20.90;;;;;;;4.72;79.75;100996.66;1692530;84;21602;-75
2022/10/16 02:20:52;;;;;;;35.17;21.65;;;;;;;4.52;80.79;101008.81;1692445;84;21102;-76
2022/10/16 02:23:34;;;;;;;36.05;19.62;;;;;;;4.45;80.88;101006.55;1683819;84;21144;-75
2022/10/16 02:26:00;;;;;;;28.32;18.52;;;;;;;4.45;80.88;101006.55;1663128;85;21055;-73
2022/10/16 02:28:47;;;;;;;34.27;23.95;;;;;;;4.41;81.44;101005.25;1628727;86;21058;-73
2022/10/16 02:31:17;;;;;;;28.47;19.62;;;;;;;4.35;81.57;101005.45;1675131;84;21125;-74
2022/10/16 02:33:44;;;;;;;27.73;19.00;;;;;;;4.21;82.02;101003.55;1691077;84;21050;-73
2022/10/16 02:36:10;;;;;;;30.95;20.05;;;;;;;4.21;82.02;101003.55;1621216;86;21093;-73
2022/10/16 02:38:37;;;;;;;25.85;18.57;;;;;;;4.17;82.21;101006.24;1671391;85;21556;-74
2022/10/16 02:41:06;;;;;;;27.50;19.95;;;;;;;4.06;82.56;101004.80;1663975;85;20971;-75
2022/10/16 02:43:33;;;;;;;29.48;21.27;;;;;;;4.06;82.56;101004.80;1623278;87;21050;-75
2022/10/16 02:46:00;;;;;;;31.15;20.45;;;;;;;4.03;82.84;101013.12;1644439;87;21311;-75
2022/10/16 02:48:27;;;;;;;28.40;19.07;;;;;;;4.03;83.02;101022.97;1666151;84;21134;-74
2022/10/16 02:50:54;;;;;;;29.85;18.20;;;;;;;4.03;83.25;101013.12;1662518;86;20959;-75
2022/10/16 02:53:20;;;;;;;30.40;19.42;;;;;;;4.06;83.40;101013.28;1662631;86;21030;-75
2022/10/16 02:55:47;;;;;;;31.23;20.45;;;;;;;4.08;83.37;101016.09;1662610;84;21052;-75
2022/10/16 02:58:13;;;;;;;23.27;17.60;;;;;;;4.11;83.46;101006.44;1663230;85;21102;-75
2022/10/16 03:00:39;;;;;;;31.33;20.95;;;;;;;4.16;83.26;101016.06;1685069;84;21821;-75
2022/10/16 03:03:06;;;;;;;32.30;23.65;;;;;;;4.11;83.05;101018.42;1691838;84;20975;-75
2022/10/16 03:05:32;;;;;;;30.82;24.20;;;;;;;4.04;83.05;101018.78;1692275;84;20978;-73
2022/10/16 03:08:00;;;;;;;28.07;21.50;;;;;;;3.97;83.12;101021.83;1668662;84;21084;-74
2022/10/16 03:10:27;;;;;;;38.33;20.97;;;;;;;3.89;83.31;101026.67;1682036;84;21429;-74
2022/10/16 03:12:54;;;;;;;31.37;21.60;;;;;;;3.82;83.46;101020.40;1662372;86;21096;-74
2022/10/16 03:15:20;;;;;;;31.48;18.82;;;;;;;3.82;83.54;101022.23;1674329;84;21035;-74
2022/10/16 03:17:47;;;;;;;21.65;16.97;;;;;;;3.80;83.59;101029.05;1677183;84;21063;-73
2022/10/16 03:20:13;;;;;;;23.18;17.15;;;;;;;3.80;83.66;101034.86;1662762;85;21051;-74
2022/10/16 03:22:40;;;;;;;28.83;18.82;;;;;;;3.78;83.74;101034.23;1662641;86;21114;-75
2022/10/16 03:25:08;;;;;;;25.75;18.87;;;;;;;3.76;83.81;101031.73;1662752;85;21327;-71
2022/10/16 03:27:34;;;;;;;27.07;18.98;;;;;;;3.74;83.87;101028.39;1662310;86;21007;-72
2022/10/16 03:30:01;;;;;;;21.40;16.15;;;;;;;3.79;83.98;101032.70;1686183;84;20951;-73
2022/10/16 03:32:28;;;;;;;33.53;19.27;;;;;;;3.80;83.83;101032.20;1677173;84;21638;-76
2022/10/16 03:34:56;;;;;;;23.45;16.60;;;;;;;3.77;83.78;101036.55;1662860;86;21054;-73
2022/10/16 03:37:23;;;;;;;22.93;17.52;;;;;;;3.71;83.78;101039.39;1662679;86;21100;-73
2022/10/16 03:39:49;;;;;;;29.00;16.67;;;;;;;3.67;83.81;101042.08;1664066;84;21034;-73
2022/10/16 03:42:16;;;;;;;20.92;14.65;;;;;;;3.65;83.87;101045.39;1663558;86;21119;-77
2022/10/16 03:44:43;;;;;;;29.85;17.42;;;;;;;3.63;83.92;101043.42;1662014;84;21157;-77
2022/10/16 03:47:10;;;;;;;23.18;17.30;;;;;;;3.63;84.00;101045.25;1662929;84;21107;-76
2022/10/16 03:49:36;;;;;;;20.40;15.75;;;;;;;3.70;84.06;101043.55;1664169;85;21114;-76
2022/10/16 03:52:04;;;;;;;22.75;15.43;;;;;;;3.71;83.89;101047.37;1666139;84;21234;-76
2022/10/16 03:54:31;;;;;;;22.55;17.15;;;;;;;3.70;83.77;101048.38;1643946;85;21090;-75
2022/10/16 03:56:57;;;;;;;21.25;15.72;;;;;;;3.65;83.68;101044.56;1673643;84;21086;-75
2022/10/16 03:59:23;;;;;;;19.80;15.90;;;;;;;3.61;83.74;101045.91;1682323;84;21009;-76
2022/10/16 04:01:50;;;;;;;28.05;17.62;;;;;;;3.56;83.83;101045.09;1703363;84;21893;-75
2022/10/16 04:04:16;;;;;;;19.57;14.98;;;;;;;3.52;83.93;101047.77;1699490;84;20954;-76
2022/10/16 04:06:44;;;;;;;28.83;15.88;;;;;;;3.50;84.09;101048.46;1683758;84;20942;-76
2022/10/16 04:09:11;;;;;;;18.75;13.22;;;;;;;3.49;84.19;101048.13;1673473;85;21002;-75
2022/10/16 04:11:39;;;;;;;22.48;14.65;;;;;;;3.53;84.28;101050.77;1673330;85;21082;-74
2022/10/16 04:14:07;;;;;;;20.60;14.58;;;;;;;3.48;84.22;101051.28;1675291;84;21582;-74
2022/10/16 04:16:35;;;;;;;19.90;13.55;;;;;;;3.47;84.36;101043.47;1692852;84;21376;-73
2022/10/16 04:19:01;;;;;;;26.80;15.55;;;;;;;3.44;84.37;101039.83;1684160;84;21725;-76
2022/10/16 04:21:29;;;;;;;24.35;14.65;;;;;;;3.41;84.50;101038.81;1672335;85;21049;-76
2022/10/16 04:23:56;;;;;;;19.00;14.38;;;;;;;3.38;84.62;101042.66;1643482;86;21093;-74
2022/10/16 04:26:23;;;;;;;20.80;14.58;;;;;;;3.36;84.67;101041.98;1643556;87;21262;-76
2022/10/16 04:28:49;;;;;;;17.82;15.58;;;;;;;3.32;84.80;101042.00;1636128;87;21481;-77
2022/10/16 04:31:15;;;;;;;21.25;14.87;;;;;;;3.31;84.85;101050.17;1633400;86;21715;-76
2022/10/16 04:33:43;;;;;;;22.48;15.50;;;;;;;3.32;84.95;101052.64;1664170;85;21102;-76
2022/10/16 04:36:09;;;;;;;20.65;13.78;;;;;;;3.35;85.10;101055.48;1671703;85;21129;-76
2022/10/16 04:38:37;;;;;;;19.87;13.85;;;;;;;3.38;85.05;101052.47;1654893;85;21142;-76
2022/10/16 04:41:04;;;;;;;21.73;13.50;;;;;;;3.38;85.01;101055.13;1642076;86;20995;-76
2022/10/16 04:43:31;;;;;;;22.05;13.35;;;;;;;3.37;85.04;101062.27;1615403;88;21075;-76
2022/10/16 04:45:57;;;;;;;22.40;12.90;;;;;;;3.35;85.11;101070.10;1666713;85;21324;-78
2022/10/16 04:48:24;;;;;;;25.08;15.28;;;;;;;3.31;85.17;101078.89;1651241;85;21044;-76
2022/10/16 04:50:50;;;;;;;20.68;14.15;;;;;;;3.30;85.25;101087.06;1643729;87;22232;-75
2022/10/16 04:53:17;;;;;;;25.50;15.80;;;;;;;3.25;85.40;101083.58;1644026;87;21635;-75
2022/10/16 04:55:44;;;;;;;26.87;14.35;;;;;;;3.26;85.55;101089.20;1641082;85;21127;-75
2022/10/16 04:58:10;;;;;;;15.23;11.73;;;;;;;3.28;85.69;101092.53;1665076;84;21055;-75
2022/10/16 05:00:38;;;;;;;18.25;14.80;;;;;;;3.32;85.85;101093.02;1668269;84;21141;-75
2022/10/16 05:03:07;;;;;;;23.15;14.05;;;;;;;3.32;85.93;101093.02;1692107;84;21074;-77
2022/10/16 05:05:33;;;;;;;23.45;15.40;;;;;;;3.30;86.06;101093.70;1691777;84;20982;-77
2022/10/16 05:08:01;;;;;;;17.82;13.62;;;;;;;3.30;86.17;101095.88;1681017;84;21118;-77
2022/10/16 05:10:29;;;;;;;29.45;16.55;;;;;;;3.31;86.25;101104.15;1687969;84;21528;-76
2022/10/16 05:12:58;;;;;;;21.60;13.43;;;;;;;3.33;86.30;101106.16;1664463;85;20959;-75
2022/10/16 05:15:26;;;;;;;19.10;13.35;;;;;;;3.38;86.37;101105.16;1630779;87;21268;-75
2022/10/16 05:17:55;;;;;;;19.00;14.98;;;;;;;3.42;86.40;101106.47;1663597;85;20963;-75
2022/10/16 05:20:23;;;;;;;17.98;13.93;;;;;;;3.47;86.40;101109.95;1664027;86;21058;-74
2022/10/16 05:22:50;;;;;;;22.70;16.52;;;;;;;3.51;86.40;101108.12;1618622;86;21067;-74
2022/10/16 05:25:16;;;;;;;18.65;15.53;;;;;;;3.57;86.36;101111.94;1662816;84;21089;-76
2022/10/16 05:27:43;;;;;;;30.97;20.45;;;;;;;3.63;86.27;101121.07;1685393;85;21551;-74
2022/10/16 07:38:28;;;;;;;13.50;10.58;;;;;;;6.77;80.59;101222.34;1870194;76;28503;-77
2022/10/16 07:41:03;;;;;;;15.50;10.55;;;;;;;6.92;80.18;101228.49;1850393;77;21015;-73
2022/10/16 07:43:29;;;;;;;15.20;9.58;;;;;;;7.15;79.72;101227.49;1844865;77;22044;-78
2022/10/16 07:45:56;;;;;;;24.40;17.25;;;;;;;7.35;78.60;101221.84;1849631;77;21542;-74
2022/10/16 07:48:23;;;;;;;17.77;13.77;;;;;;;7.48;77.84;101229.19;1856813;77;21078;-76
2022/10/16 07:50:50;;;;;;;11.22;9.70;;;;;;;7.62;77.29;101228.28;1826080;77;21016;-75
2022/10/16 07:53:16;;;;;;;13.45;10.68;;;;;;;7.72;76.82;101229.58;1825670;77;20948;-76
2022/10/16 07:55:43;;;;;;;18.12;10.32;;;;;;;7.84;76.49;101221.86;1825899;77;21041;-76
2022/10/16 07:58:10;;;;;;;19.62;11.12;;;;;;;7.98;76.02;101224.95;1829781;77;22235;-75
2022/10/16 08:00:37;;;;;;;10.48;8.00;;;;;;;8.13;75.75;101224.34;1829541;77;21502;-75
2022/10/16 08:03:03;;;;;;;15.08;10.18;;;;;;;8.33;74.24;101229.86;1821447;78;21489;-77
2022/10/16 08:05:31;;;;;;;14.70;10.08;;;;;;;8.45;73.86;101221.56;1805703;78;21856;-76
2022/10/16 08:07:58;;;;;;;13.98;10.28;;;;;;;8.60;73.43;101216.90;1805116;79;21245;-77
2022/10/16 08:10:26;;;;;;;17.45;11.63;;;;;;;8.70;72.65;101224.06;1830069;77;21079;-74
2022/10/16 08:12:53;;;;;;;12.07;9.33;;;;;;;8.83;72.59;101218.42;1832432;78;21010;-76
2022/10/16 08:15:19;;;;;;;13.15;10.35;;;;;;;8.93;72.07;101216.19;1825508;77;20988;-75
2022/10/16 08:18:01;;;;;;;24.25;12.53;;;;;;;9.05;71.88;101218.11;1799934;78;21105;-75
2022/10/16 08:20:29;;;;;;;;;;;;;;;9.17;71.62;101214.30;1838105;77;20948;-75
2022/10/16 08:22:57;;;;;;;14.40;10.53;;;;;;;9.31;70.95;101218.66;1795144;77;20110;-76
2022/10/16 08:25:24;;;;;;;13.93;9.90;;;;;;;9.42;70.61;101218.06;1773348;78;21019;-78
2022/10/16 08:27:51;;;;;;;11.50;10.20;;;;;;;9.54;69.91;101219.09;1813339;79;20992;-77
2022/10/16 08:30:20;;;;;;;12.63;9.40;;;;;;;9.62;68.94;101206.00;1806807;79;21057;-79
2022/10/16 08:32:47;;;;;;;12.95;9.45;;;;;;;9.74;68.37;101214.25;1783750;80;21137;-77
2022/10/16 08:35:13;;;;;;;12.23;8.03;;;;;;;9.85;67.73;101213.12;1774159;79;20991;-77
2022/10/16 08:37:41;;;;;;;11.08;7.95;;;;;;;9.96;67.15;101215.19;1803372;78;21578;-77
2022/10/16 08:40:19;;;;;;;13.08;8.65;;;;;;;10.07;66.11;101213.19;1805589;79;20980;-77
2022/10/16 08:43:21;;;;;;;9.95;7.85;;;;;;;10.18;65.62;101213.62;1808694;78;21127;-78
2022/10/16 08:46:18;;;;;;;9.45;8.15;;;;;;;10.28;64.51;101217.53;1814172;79;21115;-76
2022/10/16 08:48:47;;;;;;;10.15;7.83;;;;;;;10.39;64.10;101212.03;1813298;79;21076;-76
2022/10/16 08:51:27;;;;;;;9.70;7.50;;;;;;;10.52;63.13;101209.80;1814300;78;20956;-77
2022/10/16 08:54:08;;;;;;;11.05;7.60;;;;;;;10.64;62.33;101209.47;1784019;79;21627;-75
2022/10/16 08:56:35;;;;;;;11.08;6.70;;;;;;;10.71;61.86;101207.56;1772615;80;21040;-76
2022/10/16 08:59:02;;;;;;;11.05;7.00;;;;;;;10.81;61.47;101210.63;1789525;79;21222;-75
2022/10/16 09:01:41;;;;;;;11.00;8.60;;;;;;;10.88;61.23;101209.57;1761298;79;21059;-76
2022/10/16 09:04:28;;;;;;;9.78;7.30;;;;;;;10.96;61.20;101221.12;1771187;79;21072;-75
2022/10/16 09:07:03;;;;;;;8.10;5.85;;;;;;;11.04;60.57;101216.30;1777557;80;21565;-76
2022/10/16 09:10:05;;;;;;;7.28;5.75;;;;;;;11.13;59.79;101212.31;1808594;79;21030;-76
2022/10/16 09:12:42;;;;;;;5.92;5.00;;;;;;;11.22;58.52;101212.91;1795907;79;21538;-74
2022/10/16 09:15:34;;;;;;;8.93;5.62;;;;;;;11.29;57.10;101215.02;1815774;79;20951;-74
2022/10/16 09:18:11;;;;;;;8.23;6.87;;;;;;;11.33;56.57;101208.98;1816205;79;20952;-73
2022/10/16 09:21:05;;;;;;;6.55;5.42;;;;;;;11.43;56.06;101209.84;1809109;79;21167;-75
2022/10/16 09:23:36;;;;;;;6.62;5.20;;;;;;;11.50;55.23;101203.08;1799913;79;20944;-75
2022/10/16 09:26:02;;;;;;;8.08;4.62;;;;;;;11.57;54.08;101202.48;1813698;79;21121;-75
2022/10/16 09:28:29;;;;;;;8.58;5.03;;;;;;;11.64;53.74;101207.31;1796688;77;21583;-76
2022/10/16 09:30:58;;;;;;;7.05;4.92;;;;;;;11.70;53.34;101213.19;1802974;79;21047;-76
2022/10/16 09:33:29;;;;;;;7.40;6.17;;;;;;;11.74;53.63;101214.42;1792800;79;21058;-76
2022/10/16 09:35:58;;;;;;;5.97;5.20;;;;;;;11.80;53.32;101210.82;1802196;79;20952;-76
2022/10/16 09:38:32;;;;;;;9.55;6.00;;;;;;;11.85;52.50;101220.42;1824991;78;21333;-78
2022/10/16 09:41:05;;;;;;;6.17;5.58;;;;;;;11.86;52.52;101217.20;1830197;78;21717;-79
2022/10/16 09:43:44;;;;;;;6.90;4.97;;;;;;;11.84;52.61;101210.70;1799009;78;20987;-77
2022/10/16 09:46:36;;;;;;;7.35;5.80;;;;;;;11.88;52.48;101202.99;1798995;78;21031;-76
2022/10/16 09:49:05;;;;;;;7.72;4.83;;;;;;;11.91;52.51;101207.93;1798649;78;21009;-74
2022/10/16 09:51:38;;;;;;;5.08;4.53;;;;;;;12.05;52.63;101202.72;1797995;79;21187;-75
2022/10/16 09:54:13;;;;;;;7.00;5.40;;;;;;;12.12;51.78;101207.53;1798582;79;20948;-75
2022/10/16 09:56:40;;;;;;;5.97;4.85;;;;;;;12.12;51.54;101204.84;1798725;78;20896;-76
2022/10/16 09:59:12;;;;;;;7.87;5.03;;;;;;;12.14;51.36;101198.16;1759357;81;20949;-75
2022/10/16 10:01:52;;;;;;;7.60;5.25;;;;;;;12.16;51.20;101193.37;1755956;80;21022;-74
2022/10/16 10:04:23;;;;;;;5.97;4.92;;;;;;;12.23;51.30;101181.98;1754674;80;21862;-74
2022/10/16 10:06:55;;;;;;;8.80;5.37;;;;;;;12.29;50.60;101178.08;1760777;80;21000;-74
2022/10/16 10:09:35;;;;;;;7.70;5.42;;;;;;;12.31;50.63;101175.48;1792852;79;21040;-80
2022/10/16 10:12:06;;;;;;;9.35;6.20;;;;;;;12.37;50.67;101176.45;1778649;80;21110;-77
2022/10/16 10:14:39;;;;;;;5.85;4.95;;;;;;;12.46;50.82;101182.67;1776249;80;21535;-74
2022/10/16 10:17:14;;;;;;;6.75;6.10;;;;;;;12.55;50.15;101175.09;1761523;80;21147;-74
2022/10/16 10:19:52;;;;;;;10.10;5.78;;;;;;;12.49;49.63;101160.62;1761270;80;21042;-74
2022/10/16 10:22:45;;;;;;;6.53;5.75;;;;;;;12.50;49.85;101173.59;1771668;80;20971;-74
2022/10/16 10:25:17;;;;;;;15.43;5.97;;;;;;;12.55;49.53;101165.13;1754708;80;21550;-76
2022/10/16 10:28:19;;;;;;;5.83;4.65;;;;;;;12.61;49.13;101166.89;1778260;79;21066;-73
2022/10/16 10:31:02;;;;;;;11.93;4.70;;;;;;;12.67;48.58;101151.67;1780496;79;20944;-70
2022/10/16 10:33:46;;;;;;;10.75;4.45;;;;;;;12.70;47.40;101141.78;1760793;80;21237;-70
2022/10/16 10:36:30;;;;;;;4.50;4.10;;;;;;;12.75;47.50;101143.27;1768795;80;21033;-71
2022/10/16 10:39:27;;;;;;;5.78;4.80;;;;;;;12.86;47.73;101131.67;1759074;80;21530;-73
2022/10/16 10:42:33;;;;;;;7.15;4.97;;;;;;;12.96;47.56;101129.77;1765899;80;21106;-75
2022/10/16 10:45:17;;;;;;;7.53;4.50;;;;;;;13.08;47.07;101130.64;1769479;80;21095;-71
2022/10/16 10:48:05;;;;;;;7.25;6.10;;;;;;;13.17;45.68;101136.04;1760542;80;21065;-72
2022/10/16 10:50:59;;;;;;;5.37;4.78;;;;;;;13.18;46.01;101130.94;1781188;80;21052;-73
2022/10/16 10:53:49;;;;;;;5.83;4.62;;;;;;;13.24;45.31;101137.27;1730122;80;20951;-77
2022/10/16 10:56:40;;;;;;;5.08;4.05;;;;;;;13.34;45.04;101132.95;1784081;80;21161;-76
2022/10/16 10:59:17;;;;;;;4.50;3.87;;;;;;;13.49;44.20;101135.20;1774655;80;21687;-74
2022/10/16 11:02:24;;;;;;;4.53;3.95;;;;;;;13.56;44.35;101138.63;1770809;80;21092;-74
2022/10/16 11:05:20;;;;;;;4.30;3.90;;;;;;;13.57;44.41;101140.81;1762726;80;21002;-73
2022/10/16 11:08:03;;;;;;;4.10;3.70;;;;;;;13.58;44.16;101143.25;1775823;80;21464;-73
2022/10/16 11:10:35;;;;;;;4.85;4.35;;;;;;;13.69;43.98;101147.03;1762106;80;21075;-77
2022/10/16 11:13:39;;;;;;;5.40;4.60;;;;;;;13.78;43.04;101148.32;1771084;80;21869;-71
2022/10/16 11:16:25;;;;;;;5.92;4.40;;;;;;;13.84;43.18;101141.45;1786162;80;21483;-71
2022/10/16 11:19:04;;;;;;;7.67;4.45;;;;;;;13.89;42.96;101152.39;1766021;80;21038;-71
2022/10/16 11:21:36;;;;;;;5.12;3.92;;;;;;;13.96;43.13;101147.66;1776904;80;21586;-72
2022/10/16 11:24:14;;;;;;;4.45;4.03;;;;;;;13.97;43.12;101144.44;1762195;80;21045;-74
2022/10/16 11:26:42;;;;;;;6.47;4.00;;;;;;;14.04;42.22;101151.09;1781452;80;22033;-74
2022/10/16 11:29:17;;;;;;;8.88;5.08;;;;;;;14.03;42.58;101154.31;1771114;80;21014;-75
2022/10/16 11:31:49;;;;;;;5.47;4.65;;;;;;;14.09;42.22;101156.61;1763730;80;21075;-74
2022/10/16 11:34:39;;;;;;;5.70;4.95;;;;;;;14.12;41.45;101153.42;1778760;80;21066;-75
2022/10/16 11:37:20;;;;;;;5.55;4.87;;;;;;;14.12;41.43;101158.83;1790373;80;21073;-73
2022/10/16 11:39:47;;;;;;;6.65;5.47;;;;;;;14.11;41.47;101155.83;1781334;80;21087;-73
2022/10/16 11:42:39;;;;;;;6.37;5.35;;;;;;;14.09;41.79;101158.80;1760674;80;21014;-74
2022/10/16 11:45:26;;;;;;;4.78;3.98;;;;;;;14.13;41.32;101160.48;1764093;80;21594;-73
2022/10/16 11:48:03;;;;;;;5.40;4.55;;;;;;;14.16;41.61;101156.77;1755048;80;20989;-73
2022/10/16 11:50:54;;;;;;;4.33;3.92;;;;;;;14.23;41.66;101153.42;1728665;80;21010;-74
2022/10/16 11:53:54;;;;;;;5.72;5.03;;;;;;;14.34;41.57;101151.20;1755313;80;21002;-71
2022/10/16 11:56:22;;;;;;;9.78;5.60;;;;;;;14.42;41.37;101149.23;1762103;81;21499;-69
2022/10/16 11:59:12;;;;;;;8.00;5.03;;;;;;;14.44;41.46;101147.91;1744168;81;21638;-72
2022/10/16 12:01:51;;;;;;;5.25;4.60;;;;;;;14.42;41.28;101150.05;1772105;81;21101;-73
2022/10/16 12:04:28;;;;;;;6.08;4.55;;;;;;;14.37;41.45;101152.66;1752599;81;21073;-76
2022/10/16 12:07:13;;;;;;;6.70;4.65;;;;;;;14.32;41.50;101150.62;1772553;81;22209;-71
2022/10/16 12:09:42;;;;;;;5.00;4.50;;;;;;;14.36;41.40;101151.83;1761845;81;21619;-86
2022/10/16 12:12:38;;;;;;;4.95;4.37;;;;;;;14.47;41.20;101152.04;1772293;81;20931;-74
2022/10/16 12:15:23;;;;;;;7.90;4.50;;;;;;;14.54;40.47;101146.77;1683844;82;20954;-69
2022/10/16 12:17:50;;;;;;;6.75;3.95;;;;;;;14.53;40.11;101146.47;1687228;82;21027;-71
2022/10/16 12:20:31;;;;;;;5.58;5.03;;;;;;;14.50;40.17;101150.19;1731880;81;21022;-76
2022/10/16 12:23:05;;;;;;;6.62;5.33;;;;;;;14.53;39.93;101153.80;1744317;80;21964;-86
2022/10/16 12:25:37;;;;;;;6.70;4.70;;;;;;;14.55;40.14;101161.12;1755795;80;20982;-88
2022/10/16 12:28:20;;;;;;;7.20;5.00;;;;;;;14.59;39.99;101165.00;1741742;82;21022;-84
2022/10/16 12:31:02;;;;;;;4.93;4.43;;;;;;;14.61;40.02;101165.59;1770112;81;21523;-84
2022/10/16 12:33:37;;;;;;;7.35;4.60;;;;;;;14.64;39.88;101159.16;1772671;80;21151;-86
2022/10/16 12:36:09;;;;;;;12.43;4.90;;;;;;;14.66;39.80;101152.98;1772579;81;21018;-87
2022/10/16 12:38:40;;;;;;;7.30;5.42;;;;;;;14.72;40.02;101159.33;1767148;79;20995;-84
2022/10/16 12:41:09;;;;;;;7.10;5.53;;;;;;;14.81;39.91;101160.05;1763232;81;20978;-85
2022/10/16 12:43:44;;;;;;;7.85;4.60;;;;;;;14.87;39.63;101160.95;1762451;81;21113;-84
2022/10/16 12:46:20;;;;;;;5.35;4.78;;;;;;;14.92;39.60;101166.47;1764209;81;21174;-85
2022/10/16 12:48:48;;;;;;;6.10;4.80;;;;;;;14.84;39.84;101166.86;1764502;81;20992;-82
2022/10/16 12:51:31;;;;;;;8.13;5.72;;;;;;;14.71;40.08;101166.63;1764607;81;20947;-83
2022/10/16 12:54:17;;;;;;;7.75;5.12;;;;;;;14.66;40.42;101167.05;1764433;81;21594;-83
2022/10/16 12:57:07;;;;;;;6.05;4.87;;;;;;;14.73;40.73;101171.25;1764233;81;21074;-81
2022/10/16 13:00:25;;;;;;;6.62;5.20;;;;;;;14.70;40.74;101170.39;1745620;81;21099;-85
2022/10/16 13:03:30;;;;;;;5.60;4.75;;;;;;;14.67;41.02;101172.77;1739894;81;21026;-86
2022/10/16 13:06:10;;;;;;;10.80;7.53;;;;;;;14.72;40.72;101159.33;1763691;81;21002;-85
2022/10/16 13:08:55;;;;;;;7.75;4.92;;;;;;;14.73;40.67;101156.35;1764001;81;21090;-86
2022/10/16 13:11:30;;;;;;;6.83;4.70;;;;;;;14.82;40.86;101155.43;1727419;81;21155;-85
2022/10/16 13:14:10;;;;;;;5.25;4.25;;;;;;;14.97;40.40;101146.77;1763220;81;21235;-86
2022/10/16 13:17:00;;;;;;;5.17;4.67;;;;;;;15.08;40.03;101150.78;1764269;81;20978;-82
2022/10/16 13:19:43;;;;;;;4.37;3.98;;;;;;;15.14;39.52;101142.22;1752580;81;20974;-83
2022/10/16 13:22:29;;;;;;;4.33;3.72;;;;;;;15.19;38.86;101151.27;1764507;81;21057;-84
2022/10/16 13:25:14;;;;;;;5.85;4.83;;;;;;;15.17;38.48;101150.67;1764317;81;21100;-84
2022/10/16 13:27:58;;;;;;;6.92;4.80;;;;;;;15.10;38.45;101145.13;1762994;81;21150;-82
2022/10/16 13:30:34;;;;;;;3.85;3.42;;;;;;;15.13;38.09;101145.98;1764282;81;21132;-87
2022/10/16 13:33:09;;;;;;;4.47;3.20;;;;;;;15.09;37.66;101140.77;1735719;81;21041;-84
2022/10/16 13:35:36;;;;;;;8.40;4.15;;;;;;;15.04;37.55;101140.68;1762884;81;21503;-86
2022/10/16 13:38:15;;;;;;;9.25;5.42;;;;;;;14.97;37.90;101135.41;1738470;79;21571;-82
2022/10/16 13:40:57;;;;;;;7.47;5.25;;;;;;;14.91;38.00;101128.27;1797566;79;21146;-87
2022/10/16 13:43:29;;;;;;;11.97;5.60;;;;;;;14.86;37.78;101124.11;1792721;79;21016;-84
2022/10/16 13:46:00;;;;;;;4.62;3.70;;;;;;;14.81;37.68;101118.06;1797097;79;21620;-84
2022/10/16 13:48:28;;;;;;;4.07;3.67;;;;;;;14.73;37.75;101132.51;1797079;79;21018;-84
2022/10/16 13:51:06;;;;;;;6.58;4.12;;;;;;;14.65;37.86;101124.25;1797582;79;21310;-85
2022/10/16 13:53:35;;;;;;;5.10;3.75;;;;;;;14.63;38.23;101116.06;1796229;79;21545;-82
2022/10/16 13:56:04;;;;;;;5.05;3.70;;;;;;;14.60;38.29;101103.84;1796959;79;21607;-82
2022/10/16 13:58:31;;;;;;;6.92;3.50;;;;;;;14.58;38.71;101101.09;1796223;79;21028;-88
2022/10/16 14:01:05;;;;;;;5.35;4.20;;;;;;;14.52;38.90;101100.17;1797475;79;21051;-86
2022/10/16 14:03:33;;;;;;;5.50;4.03;;;;;;;14.39;39.20;101101.25;1773890;79;21056;-86